sensor_id;sensor_type;location;lat;lon;timestamp;temperature;humidity
5334;DHT22;2689;50.954;7.116;2022-12-10T00:01:23;0.40;99.90
5334;DHT22;2689;50.954;7.116;2022-12-10T00:03:52;0.50;99.90
5334;DHT22;2689;50.954;7.116;2022-12-10T00:06:20;0.50;99.90
5334;DHT22;2689;50.954;7.116;2022-12-10T00:08:48;0.60;99.90
5334;DHT22;2689;50.954;7.116;2022-12-10T00:11:16;0.60;99.90
5334;DHT22;2689;50.954;7.116;2022-12-10T00:13:46;0.50;99.90
5334;DHT22;2689;50.954;7.116;2022-12-10T00:16:15;0.50;99.90
5334;DHT22;2689;50.954;7.116;2022-12-10T00:18:42;0.60;99.90
5334;DHT22;2689;50.954;7.116;2022-12-10T00:21:13;0.70;99.90
5334;DHT22;2689;50.954;7.116;2022-12-10T00:23:41;0.70;99.90
5334;DHT22;2689;50.954;7.116;2022-12-10T00:26:10;0.80;99.90
5334;DHT22;2689;50.954;7.116;2022-12-10T00:28:37;0.80;99.90
5334;DHT22;2689;50.954;7.116;2022-12-10T00:31:05;0.80;99.90
5334;DHT22;2689;50.954;7.116;2022-12-10T00:33:33;0.80;99.90
5334;DHT22;2689;50.954;7.116;2022-12-10T00:36:04;0.70;99.90
5334;DHT22;2689;50.954;7.116;2022-12-10T00:38:33;0.70;99.90
5334;DHT22;2689;50.954;7.116;2022-12-10T00:41:00;0.70;99.90
5334;DHT22;2689;50.954;7.116;2022-12-10T00:43:27;0.70;99.90
5334;DHT22;2689;50.954;7.116;2022-12-10T00:45:54;0.60;99.90
5334;DHT22;2689;50.954;7.116;2022-12-10T00:48:21;0.50;99.90
5334;DHT22;2689;50.954;7.116;2022-12-10T00:50:55;0.50;99.90
5334;DHT22;2689;50.954;7.116;2022-12-10T00:53:23;0.40;99.90
5334;DHT22;2689;50.954;7.116;2022-12-10T00:55:51;0.40;99.90
5334;DHT22;2689;50.954;7.116;2022-12-10T00:58:18;0.40;99.90
5334;DHT22;2689;50.954;7.116;2022-12-10T01:01:08;0.30;99.90
5334;DHT22;2689;50.954;7.116;2022-12-10T01:03:35;0.20;99.90
5334;DHT22;2689;50.954;7.116;2022-12-10T01:06:10;0.10;99.90
5334;DHT22;2689;50.954;7.116;2022-12-10T01:08:37;0.10;99.90
5334;DHT22;2689;50.954;7.116;2022-12-10T01:11:06;0.10;99.90
5334;DHT22;2689;50.954;7.116;2022-12-10T01:13:34;0.10;99.90
5334;DHT22;2689;50.954;7.116;2022-12-10T01:16:01;0.10;99.90
5334;DHT22;2689;50.954;7.116;2022-12-10T01:18:28;0.00;99.90
5334;DHT22;2689;50.954;7.116;2022-12-10T01:21:00;0.10;99.90
5334;DHT22;2689;50.954;7.116;2022-12-10T01:23:27;0.10;99.90
5334;DHT22;2689;50.954;7.116;2022-12-10T01:25:54;0.00;99.90
5334;DHT22;2689;50.954;7.116;2022-12-10T01:28:28;0.00;99.90
5334;DHT22;2689;50.954;7.116;2022-12-10T01:30:55;0.00;99.90
5334;DHT22;2689;50.954;7.116;2022-12-10T01:33:25;0.00;99.90
5334;DHT22;2689;50.954;7.116;2022-12-10T01:35:52;0.00;99.90
5334;DHT22;2689;50.954;7.116;2022-12-10T01:38:19;0.00;99.90
5334;DHT22;2689;50.954;7.116;2022-12-10T01:40:46;-0.10;99.90
5334;DHT22;2689;50.954;7.116;2022-12-10T01:43:14;-0.10;99.90
5334;DHT22;2689;50.954;7.116;2022-12-10T01:45:42;-0.10;99.90
5334;DHT22;2689;50.954;7.116;2022-12-10T01:48:09;-0.10;99.90
5334;DHT22;2689;50.954;7.116;2022-12-10T01:50:37;-0.10;99.90
5334;DHT22;2689;50.954;7.116;2022-12-10T01:53:04;-0.10;99.90
5334;DHT22;2689;50.954;7.116;2022-12-10T01:55:43;-0.10;99.90
5334;DHT22;2689;50.954;7.116;2022-12-10T01:58:12;-0.10;99.90
5334;DHT22;2689;50.954;7.116;2022-12-10T02:00:48;0.00;99.90
5334;DHT22;2689;50.954;7.116;2022-12-10T08:30:15;1.70;99.90
5334;DHT22;2689;50.954;7.116;2022-12-10T08:32:42;1.70;99.90
5334;DHT22;2689;50.954;7.116;2022-12-10T08:35:09;1.70;99.90
5334;DHT22;2689;50.954;7.116;2022-12-10T08:37:36;1.70;99.90
5334;DHT22;2689;50.954;7.116;2022-12-10T08:40:10;1.80;99.90
5334;DHT22;2689;50.954;7.116;2022-12-10T08:42:37;1.80;99.90
5334;DHT22;2689;50.954;7.116;2022-12-10T08:45:05;1.80;99.90
5334;DHT22;2689;50.954;7.116;2022-12-10T08:47:33;1.80;99.90
5334;DHT22;2689;50.954;7.116;2022-12-10T08:50:00;1.80;99.90
5334;DHT22;2689;50.954;7.116;2022-12-10T08:52:27;1.80;99.90
5334;DHT22;2689;50.954;7.116;2022-12-10T08:55:04;1.80;99.90
5334;DHT22;2689;50.954;7.116;2022-12-10T08:57:31;1.90;99.90
5334;DHT22;2689;50.954;7.116;2022-12-10T08:59:58;1.90;99.90
5334;DHT22;2689;50.954;7.116;2022-12-10T09:02:25;2.00;99.90
5334;DHT22;2689;50.954;7.116;2022-12-10T09:04:53;2.00;99.90
5334;DHT22;2689;50.954;7.116;2022-12-10T09:07:20;2.00;99.90
5334;DHT22;2689;50.954;7.116;2022-12-10T09:09:47;2.00;99.90
5334;DHT22;2689;50.954;7.116;2022-12-10T09:12:14;2.00;99.90
5334;DHT22;2689;50.954;7.116;2022-12-10T09:14:40;2.00;99.90
5334;DHT22;2689;50.954;7.116;2022-12-10T09:17:08;2.00;99.90
5334;DHT22;2689;50.954;7.116;2022-12-10T09:19:35;2.00;99.90
5334;DHT22;2689;50.954;7.116;2022-12-10T09:22:03;2.00;99.90
5334;DHT22;2689;50.954;7.116;2022-12-10T09:24:29;2.00;99.90
5334;DHT22;2689;50.954;7.116;2022-12-10T09:27:02;2.10;99.90
5334;DHT22;2689;50.954;7.116;2022-12-10T09:29:29;2.00;99.90
5334;DHT22;2689;50.954;7.116;2022-12-10T09:31:56;2.00;99.90
5334;DHT22;2689;50.954;7.116;2022-12-10T09:34:22;2.00;99.90
5334;DHT22;2689;50.954;7.116;2022-12-10T09:36:49;2.10;99.90
5334;DHT22;2689;50.954;7.116;2022-12-10T09:39:17;2.10;99.90
5334;DHT22;2689;50.954;7.116;2022-12-10T09:42:09;2.20;99.90
5334;DHT22;2689;50.954;7.116;2022-12-10T09:44:47;2.30;99.90
5334;DHT22;2689;50.954;7.116;2022-12-10T09:47:16;2.40;99.90
5334;DHT22;2689;50.954;7.116;2022-12-10T09:49:53;2.40;99.90
5334;DHT22;2689;50.954;7.116;2022-12-10T09:52:24;2.50;99.90
5334;DHT22;2689;50.954;7.116;2022-12-10T09:54:55;2.50;99.90
5334;DHT22;2689;50.954;7.116;2022-12-10T09:57:27;2.50;99.90
5334;DHT22;2689;50.954;7.116;2022-12-10T10:00:10;2.40;99.90
5334;DHT22;2689;50.954;7.116;2022-12-10T10:02:38;2.50;99.90
5334;DHT22;2689;50.954;7.116;2022-12-10T10:05:10;2.60;99.90
5334;DHT22;2689;50.954;7.116;2022-12-10T10:07:43;2.60;99.90
5334;DHT22;2689;50.954;7.116;2022-12-10T10:10:21;2.70;99.90
5334;DHT22;2689;50.954;7.116;2022-12-10T10:12:51;2.60;99.90
5334;DHT22;2689;50.954;7.116;2022-12-10T10:15:24;2.60;99.90
5334;DHT22;2689;50.954;7.116;2022-12-10T10:17:53;2.60;99.90
5334;DHT22;2689;50.954;7.116;2022-12-10T10:20:21;2.60;99.90
5334;DHT22;2689;50.954;7.116;2022-12-10T10:22:48;2.70;99.90
5334;DHT22;2689;50.954;7.116;2022-12-10T10:25:18;2.80;99.90
5334;DHT22;2689;50.954;7.116;2022-12-10T10:27:45;2.80;99.90
5334;DHT22;2689;50.954;7.116;2022-12-10T10:30:16;2.80;99.90
5334;DHT22;2689;50.954;7.116;2022-12-10T10:32:50;2.90;99.90
5334;DHT22;2689;50.954;7.116;2022-12-10T10:35:41;2.90;99.90
5334;DHT22;2689;50.954;7.116;2022-12-10T10:38:15;3.00;99.90
5334;DHT22;2689;50.954;7.116;2022-12-10T10:40:46;2.90;99.90
5334;DHT22;2689;50.954;7.116;2022-12-10T10:43:19;3.00;99.90
5334;DHT22;2689;50.954;7.116;2022-12-10T10:45:49;3.00;99.90
5334;DHT22;2689;50.954;7.116;2022-12-10T10:48:19;3.00;99.90
5334;DHT22;2689;50.954;7.116;2022-12-10T10:50:48;3.00;99.90
5334;DHT22;2689;50.954;7.116;2022-12-10T10:53:31;3.00;99.90
5334;DHT22;2689;50.954;7.116;2022-12-10T10:56:05;3.00;99.90
5334;DHT22;2689;50.954;7.116;2022-12-10T10:58:35;3.00;99.90
5334;DHT22;2689;50.954;7.116;2022-12-10T11:01:04;3.00;99.90
5334;DHT22;2689;50.954;7.116;2022-12-10T11:03:34;2.90;99.90
5334;DHT22;2689;50.954;7.116;2022-12-10T11:06:06;2.90;99.90
5334;DHT22;2689;50.954;7.116;2022-12-10T11:08:35;2.90;99.90
5334;DHT22;2689;50.954;7.116;2022-12-10T11:11:06;2.90;99.90
5334;DHT22;2689;50.954;7.116;2022-12-10T11:13:37;3.00;99.90
5334;DHT22;2689;50.954;7.116;2022-12-10T11:16:12;3.00;99.90
5334;DHT22;2689;50.954;7.116;2022-12-10T11:18:40;3.10;99.90
5334;DHT22;2689;50.954;7.116;2022-12-10T11:21:16;3.10;99.90
5334;DHT22;2689;50.954;7.116;2022-12-10T11:23:47;3.20;99.90
5334;DHT22;2689;50.954;7.116;2022-12-10T11:26:38;3.20;99.90
5334;DHT22;2689;50.954;7.116;2022-12-10T11:29:24;3.10;99.90
5334;DHT22;2689;50.954;7.116;2022-12-10T11:32:05;3.10;99.90
5334;DHT22;2689;50.954;7.116;2022-12-10T11:34:41;3.00;99.90
5334;DHT22;2689;50.954;7.116;2022-12-10T11:37:21;3.00;99.90
5334;DHT22;2689;50.954;7.116;2022-12-10T11:40:06;3.10;99.90
5334;DHT22;2689;50.954;7.116;2022-12-10T11:42:48;3.20;99.90
5334;DHT22;2689;50.954;7.116;2022-12-10T11:45:20;3.20;99.90
5334;DHT22;2689;50.954;7.116;2022-12-10T11:48:05;3.20;99.90
5334;DHT22;2689;50.954;7.116;2022-12-10T11:50:41;3.20;99.90
5334;DHT22;2689;50.954;7.116;2022-12-10T11:53:30;3.10;99.90
5334;DHT22;2689;50.954;7.116;2022-12-10T11:56:08;3.10;99.90
5334;DHT22;2689;50.954;7.116;2022-12-10T11:58:55;3.10;99.90
5334;DHT22;2689;50.954;7.116;2022-12-10T12:01:34;3.00;99.90
5334;DHT22;2689;50.954;7.116;2022-12-10T12:04:20;3.00;99.90
5334;DHT22;2689;50.954;7.116;2022-12-10T12:07:02;2.90;99.90
5334;DHT22;2689;50.954;7.116;2022-12-10T12:09:37;2.90;99.90
5334;DHT22;2689;50.954;7.116;2022-12-10T12:12:13;2.90;99.90
5334;DHT22;2689;50.954;7.116;2022-12-10T12:14:48;2.90;99.90
5334;DHT22;2689;50.954;7.116;2022-12-10T12:17:19;2.80;99.90
5334;DHT22;2689;50.954;7.116;2022-12-10T12:19:51;2.90;99.90
5334;DHT22;2689;50.954;7.116;2022-12-10T12:22:23;2.90;99.90
5334;DHT22;2689;50.954;7.116;2022-12-10T12:24:54;2.80;99.90
5334;DHT22;2689;50.954;7.116;2022-12-10T12:27:27;2.80;99.90
5334;DHT22;2689;50.954;7.116;2022-12-10T12:30:05;2.80;99.90
5334;DHT22;2689;50.954;7.116;2022-12-10T12:32:42;2.80;99.90
5334;DHT22;2689;50.954;7.116;2022-12-10T12:35:13;2.90;99.90
5334;DHT22;2689;50.954;7.116;2022-12-10T12:37:46;3.00;99.90
5334;DHT22;2689;50.954;7.116;2022-12-10T12:40:23;3.00;99.90
5334;DHT22;2689;50.954;7.116;2022-12-10T12:42:56;3.10;99.90
5334;DHT22;2689;50.954;7.116;2022-12-10T12:45:33;3.00;99.90
5334;DHT22;2689;50.954;7.116;2022-12-10T12:48:09;2.90;99.90
5334;DHT22;2689;50.954;7.116;2022-12-10T12:50:43;2.90;99.90
5334;DHT22;2689;50.954;7.116;2022-12-10T12:53:13;2.80;99.90
5334;DHT22;2689;50.954;7.116;2022-12-10T12:55:46;2.80;99.90
5334;DHT22;2689;50.954;7.116;2022-12-10T12:58:22;2.90;99.90
5334;DHT22;2689;50.954;7.116;2022-12-10T13:00:57;3.20;99.90
5334;DHT22;2689;50.954;7.116;2022-12-10T13:03:32;3.00;99.90
5334;DHT22;2689;50.954;7.116;2022-12-10T13:06:16;2.90;99.90
5334;DHT22;2689;50.954;7.116;2022-12-10T13:08:45;2.90;99.90
5334;DHT22;2689;50.954;7.116;2022-12-10T13:11:18;2.90;99.90
5334;DHT22;2689;50.954;7.116;2022-12-10T13:14:16;2.90;99.90
5334;DHT22;2689;50.954;7.116;2022-12-10T13:17:07;2.90;99.90
5334;DHT22;2689;50.954;7.116;2022-12-10T13:19:34;2.80;99.90
5334;DHT22;2689;50.954;7.116;2022-12-10T13:22:08;2.90;99.90
5334;DHT22;2689;50.954;7.116;2022-12-10T13:27:32;3.00;99.90
5334;DHT22;2689;50.954;7.116;2022-12-10T13:30:05;3.10;99.90
5334;DHT22;2689;50.954;7.116;2022-12-10T13:32:53;3.20;99.90
5334;DHT22;2689;50.954;7.116;2022-12-10T13:35:29;3.30;99.90
5334;DHT22;2689;50.954;7.116;2022-12-10T13:38:04;3.20;99.90
5334;DHT22;2689;50.954;7.116;2022-12-10T13:40:40;3.20;99.90
5334;DHT22;2689;50.954;7.116;2022-12-10T13:43:27;3.10;99.90
5334;DHT22;2689;50.954;7.116;2022-12-10T13:46:28;3.00;99.90
5334;DHT22;2689;50.954;7.116;2022-12-10T13:48:59;3.00;99.90
5334;DHT22;2689;50.954;7.116;2022-12-10T13:51:35;3.10;99.90
5334;DHT22;2689;50.954;7.116;2022-12-10T13:57:34;3.10;99.90
5334;DHT22;2689;50.954;7.116;2022-12-10T14:00:11;3.10;99.90
5334;DHT22;2689;50.954;7.116;2022-12-10T14:02:53;3.10;99.90
5334;DHT22;2689;50.954;7.116;2022-12-10T14:05:36;3.20;99.90
5334;DHT22;2689;50.954;7.116;2022-12-10T14:08:05;3.20;99.90
5334;DHT22;2689;50.954;7.116;2022-12-10T14:10:35;3.30;99.90
5334;DHT22;2689;50.954;7.116;2022-12-10T14:13:04;3.30;99.90
5334;DHT22;2689;50.954;7.116;2022-12-10T14:15:35;3.40;99.90
5334;DHT22;2689;50.954;7.116;2022-12-10T14:18:09;3.40;99.90
5334;DHT22;2689;50.954;7.116;2022-12-10T14:20:50;3.40;99.90
5334;DHT22;2689;50.954;7.116;2022-12-10T14:23:25;3.30;99.90
5334;DHT22;2689;50.954;7.116;2022-12-10T14:26:06;3.30;99.90
5334;DHT22;2689;50.954;7.116;2022-12-10T14:28:39;3.20;99.90
5334;DHT22;2689;50.954;7.116;2022-12-10T14:31:09;3.20;99.90
5334;DHT22;2689;50.954;7.116;2022-12-10T14:33:38;3.10;99.90
5334;DHT22;2689;50.954;7.116;2022-12-10T14:36:12;3.10;99.90
5334;DHT22;2689;50.954;7.116;2022-12-10T14:38:41;3.00;99.90
5334;DHT22;2689;50.954;7.116;2022-12-10T14:41:08;3.00;99.90
5334;DHT22;2689;50.954;7.116;2022-12-10T14:43:38;2.90;99.90
5334;DHT22;2689;50.954;7.116;2022-12-10T14:46:13;3.00;99.90
5334;DHT22;2689;50.954;7.116;2022-12-10T14:48:41;3.20;99.90
5334;DHT22;2689;50.954;7.116;2022-12-10T14:51:13;2.90;99.90
5334;DHT22;2689;50.954;7.116;2022-12-10T14:53:41;2.90;99.90
5334;DHT22;2689;50.954;7.116;2022-12-10T14:56:10;2.90;99.90
5334;DHT22;2689;50.954;7.116;2022-12-10T14:58:42;2.80;99.90
5334;DHT22;2689;50.954;7.116;2022-12-10T15:01:15;2.80;99.90
5334;DHT22;2689;50.954;7.116;2022-12-10T15:03:45;2.80;99.90
5334;DHT22;2689;50.954;7.116;2022-12-10T15:06:17;2.80;99.90
5334;DHT22;2689;50.954;7.116;2022-12-10T15:08:46;2.80;99.90
5334;DHT22;2689;50.954;7.116;2022-12-10T15:11:16;2.80;99.90
5334;DHT22;2689;50.954;7.116;2022-12-10T15:13:46;2.80;99.90
5334;DHT22;2689;50.954;7.116;2022-12-10T15:16:17;2.90;99.90
5334;DHT22;2689;50.954;7.116;2022-12-10T15:18:45;2.90;99.90
5334;DHT22;2689;50.954;7.116;2022-12-10T15:21:15;2.70;99.90
5334;DHT22;2689;50.954;7.116;2022-12-10T15:23:46;2.70;99.90
5334;DHT22;2689;50.954;7.116;2022-12-10T15:26:18;2.70;99.90
5334;DHT22;2689;50.954;7.116;2022-12-10T15:28:47;2.70;99.90
5334;DHT22;2689;50.954;7.116;2022-12-10T15:31:21;2.80;99.90
5334;DHT22;2689;50.954;7.116;2022-12-10T15:33:52;2.80;99.90
5334;DHT22;2689;50.954;7.116;2022-12-10T15:36:33;2.80;99.90
5334;DHT22;2689;50.954;7.116;2022-12-10T15:39:03;2.70;99.90
5334;DHT22;2689;50.954;7.116;2022-12-10T15:41:53;2.70;99.90
5334;DHT22;2689;50.954;7.116;2022-12-10T15:44:39;2.70;99.90
5334;DHT22;2689;50.954;7.116;2022-12-10T15:47:21;2.70;99.90
5334;DHT22;2689;50.954;7.116;2022-12-10T15:49:50;2.70;99.90
5334;DHT22;2689;50.954;7.116;2022-12-10T15:52:21;2.70;99.90
5334;DHT22;2689;50.954;7.116;2022-12-10T15:55:10;2.60;99.90
5334;DHT22;2689;50.954;7.116;2022-12-10T15:57:41;2.60;99.90
5334;DHT22;2689;50.954;7.116;2022-12-10T16:00:20;2.60;99.90
5334;DHT22;2689;50.954;7.116;2022-12-10T16:02:49;2.60;99.90
5334;DHT22;2689;50.954;7.116;2022-12-10T16:05:22;2.60;99.90
5334;DHT22;2689;50.954;7.116;2022-12-10T16:07:54;2.60;99.90
5334;DHT22;2689;50.954;7.116;2022-12-10T16:10:50;2.60;99.90
5334;DHT22;2689;50.954;7.116;2022-12-10T16:13:23;2.60;99.90
5334;DHT22;2689;50.954;7.116;2022-12-10T16:15:53;2.60;99.90
5334;DHT22;2689;50.954;7.116;2022-12-10T18:50:03;2.60;99.90
5334;DHT22;2689;50.954;7.116;2022-12-10T20:56:06;2.70;99.90
5334;DHT22;2689;50.954;7.116;2022-12-10T20:58:38;2.70;99.90
5334;DHT22;2689;50.954;7.116;2022-12-10T21:01:13;2.70;99.90
5334;DHT22;2689;50.954;7.116;2022-12-10T21:03:43;2.70;99.90
5334;DHT22;2689;50.954;7.116;2022-12-10T21:06:13;2.70;99.90
5334;DHT22;2689;50.954;7.116;2022-12-10T21:08:41;2.70;99.90
5334;DHT22;2689;50.954;7.116;2022-12-10T21:11:09;2.60;99.90
5334;DHT22;2689;50.954;7.116;2022-12-10T21:13:36;2.70;99.90
5334;DHT22;2689;50.954;7.116;2022-12-10T21:16:04;2.70;99.90
5334;DHT22;2689;50.954;7.116;2022-12-10T21:18:31;2.60;99.90
5334;DHT22;2689;50.954;7.116;2022-12-10T21:20:59;2.60;99.90
5334;DHT22;2689;50.954;7.116;2022-12-10T21:23:27;2.60;99.90
5334;DHT22;2689;50.954;7.116;2022-12-10T21:25:54;2.60;99.90
5334;DHT22;2689;50.954;7.116;2022-12-10T21:28:23;2.60;99.90
5334;DHT22;2689;50.954;7.116;2022-12-10T21:30:50;2.60;99.90
5334;DHT22;2689;50.954;7.116;2022-12-10T21:33:19;2.50;99.90
5334;DHT22;2689;50.954;7.116;2022-12-10T21:35:46;2.50;99.90
5334;DHT22;2689;50.954;7.116;2022-12-10T21:38:13;2.50;99.90
5334;DHT22;2689;50.954;7.116;2022-12-10T21:40:42;2.60;99.90
5334;DHT22;2689;50.954;7.116;2022-12-10T21:43:14;2.50;99.90
5334;DHT22;2689;50.954;7.116;2022-12-10T21:49:02;2.60;99.90
5334;DHT22;2689;50.954;7.116;2022-12-10T21:51:29;2.60;99.90
